PCM1806 KSAN-KLAX
Flight info
| Callsign | PCM1806 |
|---|---|
| Flight time | 0h 49m |
| Altitude | 8000 |
| Route | CWARD2 SLI |
| Aircraft | C208/L-SDFGR/C |
Departure
| Time | 2026-04-26 03:44 |
|---|---|
| Airport | San Diego International Airport (KSAN) |
Arrival
| Time | 2026-04-26 04:34 |
|---|---|
| Airport | Los Angeles International Airport (KLAX) |
| Time | Latitude | Longitude | Altitude | Speed | Heading |
|---|---|---|---|---|---|
| 2026-04-26 03:12 | 32.73690 | -117.18670 | 21 ft | 0 kts | 235° |
| 2026-04-26 03:34 | 32.73675 | -117.18670 | 21 ft | 1 kts | 147° |
| 2026-04-26 03:34 | 32.73669 | -117.18665 | 20 ft | 1 kts | 138° |
| 2026-04-26 03:35 | 32.73667 | -117.18653 | 21 ft | 2 kts | 92° |
| 2026-04-26 03:35 | 32.73666 | -117.18629 | 21 ft | 4 kts | 91° |
| 2026-04-26 03:35 | 32.73662 | -117.18593 | 24 ft | 5 kts | 106° |
| 2026-04-26 03:35 | 32.73639 | -117.18554 | 21 ft | 7 kts | 146° |
| 2026-04-26 03:36 | 32.73611 | -117.18534 | 23 ft | 0 kts | 145° |
| 2026-04-26 03:39 | 32.73611 | -117.18533 | 21 ft | 0 kts | 145° |
| 2026-04-26 03:39 | 32.73600 | -117.18524 | 21 ft | 6 kts | 146° |
| 2026-04-26 03:39 | 32.73551 | -117.18481 | 21 ft | 10 kts | 144° |
| 2026-04-26 03:39 | 32.73489 | -117.18430 | 22 ft | 11 kts | 143° |
| 2026-04-26 03:40 | 32.73427 | -117.18391 | 23 ft | 9 kts | 178° |
| 2026-04-26 03:40 | 32.73374 | -117.18403 | 23 ft | 6 kts | 191° |
| 2026-04-26 03:40 | 32.73339 | -117.18393 | 23 ft | 6 kts | 139° |
| 2026-04-26 03:40 | 32.73318 | -117.18345 | 22 ft | 8 kts | 108° |
| 2026-04-26 03:41 | 32.73303 | -117.18276 | 22 ft | 9 kts | 105° |
| 2026-04-26 03:41 | 32.73284 | -117.18198 | 24 ft | 10 kts | 106° |
| 2026-04-26 03:41 | 32.73264 | -117.18112 | 22 ft | 11 kts | 104° |
| 2026-04-26 03:41 | 32.73241 | -117.18018 | 23 ft | 13 kts | 106° |
| 2026-04-26 03:42 | 32.73219 | -117.17924 | 20 ft | 10 kts | 107° |
| 2026-04-26 03:42 | 32.73204 | -117.17866 | 21 ft | 5 kts | 106° |
| 2026-04-26 03:42 | 32.73197 | -117.17833 | 22 ft | 5 kts | 106° |
| 2026-04-26 03:42 | 32.73174 | -117.17744 | 22 ft | 17 kts | 107° |
| 2026-04-26 03:43 | 32.73131 | -117.17668 | 21 ft | 7 kts | 163° |
| 2026-04-26 03:43 | 32.73102 | -117.17671 | 21 ft | 4 kts | 192° |
| 2026-04-26 03:43 | 32.73058 | -117.17699 | 20 ft | 11 kts | 248° |
| 2026-04-26 03:43 | 32.73080 | -117.17828 | 19 ft | 30 kts | 286° |
| 2026-04-26 03:44 | 32.73193 | -117.18295 | 25 ft | 85 kts | 285° |
| 2026-04-26 03:44 | 32.73373 | -117.19085 | 133 ft | 110 kts | 283° |
| 2026-04-26 03:44 | 32.73558 | -117.19975 | 455 ft | 108 kts | 282° |
| 2026-04-26 03:44 | 32.73703 | -117.20840 | 820 ft | 108 kts | 279° |
| 2026-04-26 03:45 | 32.73980 | -117.21688 | 1093 ft | 114 kts | 299° |
| 2026-04-26 03:45 | 32.74511 | -117.22471 | 1265 ft | 125 kts | 307° |
| 2026-04-26 03:45 | 32.74896 | -117.23040 | 1275 ft | 137 kts | 302° |
| 2026-04-26 03:45 | 32.75630 | -117.24294 | 1412 ft | 142 kts | 303° |
| 2026-04-26 03:46 | 32.76227 | -117.25238 | 1517 ft | 141 kts | 303° |
| 2026-04-26 03:46 | 32.76618 | -117.25854 | 1589 ft | 135 kts | 302° |
| 2026-04-26 03:46 | 32.77151 | -117.26769 | 1718 ft | 135 kts | 300° |
| 2026-04-26 03:47 | 32.78178 | -117.28634 | 1965 ft | 135 kts | 298° |
| 2026-04-26 03:47 | 32.78678 | -117.29579 | 2097 ft | 135 kts | 297° |
| 2026-04-26 03:47 | 32.79153 | -117.30538 | 2218 ft | 135 kts | 296° |
| 2026-04-26 03:47 | 32.79604 | -117.31518 | 2346 ft | 135 kts | 294° |
| 2026-04-26 03:48 | 32.80028 | -117.32500 | 2475 ft | 135 kts | 292° |
| 2026-04-26 03:48 | 32.80433 | -117.33507 | 2597 ft | 135 kts | 291° |
| 2026-04-26 03:48 | 32.80816 | -117.34519 | 2772 ft | 131 kts | 290° |
| 2026-04-26 03:48 | 32.81147 | -117.35459 | 3134 ft | 116 kts | 288° |
| 2026-04-26 03:49 | 32.81428 | -117.36337 | 3499 ft | 112 kts | 285° |
| 2026-04-26 03:49 | 32.81669 | -117.37205 | 3872 ft | 109 kts | 283° |
| 2026-04-26 03:49 | 32.81872 | -117.38040 | 4231 ft | 101 kts | 282° |
| 2026-04-26 03:49 | 32.82036 | -117.38814 | 4588 ft | 92 kts | 279° |
| 2026-04-26 03:50 | 32.82159 | -117.39522 | 4938 ft | 84 kts | 285° |
| 2026-04-26 03:50 | 32.82529 | -117.40009 | 5263 ft | 74 kts | 305° |
| 2026-04-26 03:50 | 32.82848 | -117.40419 | 5495 ft | 67 kts | 303° |
| 2026-04-26 03:50 | 32.83190 | -117.40858 | 5610 ft | 76 kts | 304° |
| 2026-04-26 03:51 | 32.83567 | -117.41347 | 5755 ft | 84 kts | 304° |
| 2026-04-26 03:51 | 32.83972 | -117.41885 | 5912 ft | 91 kts | 304° |
| 2026-04-26 03:51 | 32.84406 | -117.42471 | 6081 ft | 98 kts | 304° |
| 2026-04-26 03:51 | 32.84870 | -117.43101 | 6242 ft | 104 kts | 305° |
| 2026-04-26 03:52 | 32.85370 | -117.43791 | 6402 ft | 116 kts | 306° |
| 2026-04-26 03:52 | 32.85924 | -117.44555 | 6561 ft | 127 kts | 306° |
| 2026-04-26 03:52 | 32.86520 | -117.45374 | 6711 ft | 135 kts | 306° |
| 2026-04-26 03:52 | 32.87135 | -117.46224 | 6850 ft | 140 kts | 306° |
| 2026-04-26 03:53 | 32.87779 | -117.47114 | 6983 ft | 143 kts | 306° |
| 2026-04-26 03:53 | 32.88434 | -117.48022 | 7115 ft | 146 kts | 306° |
| 2026-04-26 03:53 | 32.89096 | -117.48939 | 7242 ft | 147 kts | 305° |
| 2026-04-26 03:53 | 32.89765 | -117.49867 | 7373 ft | 148 kts | 305° |
| 2026-04-26 03:54 | 32.90437 | -117.50799 | 7494 ft | 149 kts | 305° |
| 2026-04-26 03:54 | 32.91111 | -117.51736 | 7619 ft | 149 kts | 305° |
| 2026-04-26 03:54 | 32.91784 | -117.52671 | 7748 ft | 149 kts | 305° |
| 2026-04-26 03:54 | 32.92461 | -117.53608 | 7875 ft | 149 kts | 305° |
| 2026-04-26 03:55 | 32.93140 | -117.54551 | 7962 ft | 152 kts | 305° |
| 2026-04-26 03:55 | 32.93840 | -117.55527 | 7969 ft | 157 kts | 306° |
| 2026-04-26 03:55 | 32.94557 | -117.56523 | 7968 ft | 158 kts | 305° |
| 2026-04-26 03:55 | 32.95266 | -117.57506 | 7966 ft | 156 kts | 305° |
| 2026-04-26 03:56 | 32.95970 | -117.58483 | 7969 ft | 155 kts | 305° |
| 2026-04-26 03:56 | 32.96669 | -117.59455 | 7965 ft | 154 kts | 305° |
| 2026-04-26 03:56 | 32.97356 | -117.60411 | 7965 ft | 154 kts | 305° |
| 2026-04-26 03:56 | 32.98051 | -117.61379 | 7967 ft | 153 kts | 305° |
| 2026-04-26 03:57 | 32.98744 | -117.62343 | 7966 ft | 153 kts | 305° |
| 2026-04-26 03:57 | 32.99436 | -117.63308 | 7966 ft | 153 kts | 305° |
| 2026-04-26 03:57 | 33.00129 | -117.64273 | 7964 ft | 154 kts | 305° |
| 2026-04-26 03:57 | 33.00825 | -117.65242 | 7963 ft | 154 kts | 305° |
| 2026-04-26 03:58 | 33.01522 | -117.66212 | 7962 ft | 154 kts | 305° |
| 2026-04-26 03:58 | 33.02218 | -117.67184 | 7961 ft | 154 kts | 305° |
| 2026-04-26 03:58 | 33.02913 | -117.68152 | 7963 ft | 154 kts | 305° |
| 2026-04-26 03:58 | 33.03609 | -117.69123 | 7962 ft | 153 kts | 305° |
| 2026-04-26 03:59 | 33.04300 | -117.70087 | 7960 ft | 153 kts | 305° |
| 2026-04-26 03:59 | 33.04991 | -117.71051 | 7961 ft | 153 kts | 305° |
| 2026-04-26 03:59 | 33.05674 | -117.72004 | 7959 ft | 153 kts | 305° |
| 2026-04-26 03:59 | 33.06372 | -117.72964 | 7959 ft | 154 kts | 308° |
| 2026-04-26 04:00 | 33.07197 | -117.73802 | 7956 ft | 156 kts | 314° |
| 2026-04-26 04:00 | 33.08023 | -117.74638 | 7950 ft | 156 kts | 313° |
| 2026-04-26 04:00 | 33.08847 | -117.75477 | 7955 ft | 155 kts | 313° |
| 2026-04-26 04:00 | 33.09669 | -117.76315 | 7957 ft | 155 kts | 313° |
| 2026-04-26 04:01 | 33.10492 | -117.77152 | 7953 ft | 155 kts | 314° |
| 2026-04-26 04:01 | 33.11313 | -117.77987 | 7957 ft | 155 kts | 314° |
| 2026-04-26 04:01 | 33.12135 | -117.78823 | 7949 ft | 155 kts | 314° |
| 2026-04-26 04:01 | 33.12955 | -117.79658 | 7951 ft | 155 kts | 313° |
| 2026-04-26 04:02 | 33.13776 | -117.80493 | 7953 ft | 155 kts | 313° |
| 2026-04-26 04:02 | 33.14594 | -117.81325 | 7950 ft | 155 kts | 313° |
| 2026-04-26 04:02 | 33.15414 | -117.82160 | 7951 ft | 155 kts | 313° |
| 2026-04-26 04:02 | 33.16234 | -117.82995 | 7951 ft | 155 kts | 313° |
| 2026-04-26 04:03 | 33.17052 | -117.83828 | 7952 ft | 155 kts | 313° |
| 2026-04-26 04:03 | 33.17870 | -117.84663 | 7949 ft | 155 kts | 313° |
| 2026-04-26 04:03 | 33.18690 | -117.85497 | 7943 ft | 155 kts | 313° |
| 2026-04-26 04:03 | 33.19558 | -117.86264 | 7935 ft | 159 kts | 328° |
| 2026-04-26 04:04 | 33.20658 | -117.86580 | 7938 ft | 165 kts | 344° |
| 2026-04-26 04:04 | 33.21787 | -117.86813 | 7939 ft | 164 kts | 342° |
| 2026-04-26 04:04 | 33.22907 | -117.87083 | 7946 ft | 164 kts | 341° |
| 2026-04-26 04:04 | 33.24010 | -117.87355 | 7946 ft | 164 kts | 341° |
| 2026-04-26 04:05 | 33.25121 | -117.87631 | 7993 ft | 161 kts | 341° |
| 2026-04-26 04:05 | 33.26224 | -117.87906 | 7995 ft | 162 kts | 341° |
| 2026-04-26 04:05 | 33.27331 | -117.88182 | 7994 ft | 163 kts | 341° |
| 2026-04-26 04:05 | 33.28442 | -117.88459 | 7995 ft | 163 kts | 341° |
| 2026-04-26 04:06 | 33.29556 | -117.88736 | 7996 ft | 163 kts | 341° |
| 2026-04-26 04:06 | 33.30672 | -117.89014 | 7997 ft | 164 kts | 341° |
| 2026-04-26 04:06 | 33.31788 | -117.89292 | 7998 ft | 164 kts | 341° |
| 2026-04-26 04:06 | 33.32906 | -117.89570 | 8000 ft | 164 kts | 341° |
| 2026-04-26 04:07 | 33.34011 | -117.89846 | 8004 ft | 164 kts | 341° |
| 2026-04-26 04:07 | 33.35130 | -117.90124 | 8005 ft | 164 kts | 341° |
| 2026-04-26 04:07 | 33.36247 | -117.90403 | 8000 ft | 164 kts | 341° |
| 2026-04-26 04:07 | 33.37370 | -117.90683 | 8005 ft | 164 kts | 341° |
| 2026-04-26 04:08 | 33.38487 | -117.90971 | 8002 ft | 163 kts | 338° |
| 2026-04-26 04:08 | 33.39558 | -117.91382 | 8001 ft | 162 kts | 336° |
| 2026-04-26 04:08 | 33.40643 | -117.91762 | 8002 ft | 162 kts | 337° |
| 2026-04-26 04:08 | 33.41726 | -117.92148 | 8006 ft | 162 kts | 336° |
| 2026-04-26 04:09 | 33.42807 | -117.92539 | 8005 ft | 162 kts | 336° |
| 2026-04-26 04:09 | 33.43890 | -117.92932 | 8008 ft | 163 kts | 336° |
| 2026-04-26 04:09 | 33.44973 | -117.93325 | 8009 ft | 163 kts | 336° |
| 2026-04-26 04:09 | 33.46060 | -117.93720 | 8010 ft | 163 kts | 336° |
| 2026-04-26 04:10 | 33.47145 | -117.94114 | 8013 ft | 163 kts | 336° |
| 2026-04-26 04:10 | 33.48231 | -117.94509 | 8013 ft | 163 kts | 336° |
| 2026-04-26 04:10 | 33.49305 | -117.94899 | 8012 ft | 163 kts | 336° |
| 2026-04-26 04:10 | 33.50390 | -117.95294 | 8015 ft | 163 kts | 336° |
| 2026-04-26 04:11 | 33.51477 | -117.95689 | 8017 ft | 163 kts | 336° |
| 2026-04-26 04:11 | 33.52564 | -117.96080 | 8019 ft | 164 kts | 338° |
| 2026-04-26 04:11 | 33.53634 | -117.96509 | 8018 ft | 161 kts | 332° |
| 2026-04-26 04:11 | 33.54681 | -117.97002 | 8023 ft | 162 kts | 332° |
| 2026-04-26 04:12 | 33.55733 | -117.97500 | 8035 ft | 162 kts | 331° |
| 2026-04-26 04:12 | 33.56782 | -117.98007 | 8020 ft | 161 kts | 328° |
| 2026-04-26 04:12 | 33.57667 | -117.98778 | 8023 ft | 156 kts | 312° |
| 2026-04-26 04:12 | 33.58469 | -117.99655 | 8027 ft | 156 kts | 312° |
| 2026-04-26 04:13 | 33.59272 | -118.00536 | 8030 ft | 156 kts | 312° |
| 2026-04-26 04:13 | 33.60074 | -118.01412 | 8027 ft | 156 kts | 311° |
| 2026-04-26 04:13 | 33.60880 | -118.02284 | 8026 ft | 156 kts | 312° |
| 2026-04-26 04:13 | 33.61688 | -118.03155 | 8029 ft | 156 kts | 311° |
| 2026-04-26 04:14 | 33.62492 | -118.04036 | 8025 ft | 156 kts | 312° |
| 2026-04-26 04:14 | 33.63296 | -118.04917 | 8025 ft | 156 kts | 312° |
| 2026-04-26 04:14 | 33.64098 | -118.05801 | 7990 ft | 157 kts | 312° |
| 2026-04-26 04:14 | 33.64892 | -118.06678 | 7987 ft | 157 kts | 312° |
| 2026-04-26 04:15 | 33.65698 | -118.07566 | 7992 ft | 158 kts | 311° |
| 2026-04-26 04:15 | 33.66512 | -118.08451 | 7988 ft | 157 kts | 311° |
| 2026-04-26 04:15 | 33.67324 | -118.09328 | 7988 ft | 156 kts | 312° |
| 2026-04-26 04:15 | 33.68131 | -118.10200 | 7987 ft | 155 kts | 312° |
| 2026-04-26 04:16 | 33.68932 | -118.11069 | 7984 ft | 154 kts | 311° |
| 2026-04-26 04:16 | 33.69727 | -118.11929 | 7983 ft | 154 kts | 312° |
| 2026-04-26 04:16 | 33.70524 | -118.12796 | 7984 ft | 155 kts | 311° |
| 2026-04-26 04:16 | 33.71327 | -118.13661 | 7986 ft | 155 kts | 312° |
| 2026-04-26 04:17 | 33.72134 | -118.14529 | 8011 ft | 156 kts | 312° |
| 2026-04-26 04:17 | 33.72941 | -118.15398 | 8009 ft | 156 kts | 312° |
| 2026-04-26 04:17 | 33.73741 | -118.16261 | 8009 ft | 155 kts | 311° |
| 2026-04-26 04:17 | 33.74546 | -118.17129 | 8007 ft | 155 kts | 312° |
| 2026-04-26 04:18 | 33.75348 | -118.17992 | 8009 ft | 154 kts | 312° |
| 2026-04-26 04:18 | 33.76152 | -118.18845 | 8004 ft | 156 kts | 316° |
| 2026-04-26 04:18 | 33.77227 | -118.19151 | 7997 ft | 172 kts | 5° |
| 2026-04-26 04:18 | 33.78284 | -118.18428 | 7903 ft | 176 kts | 36° |
| 2026-04-26 04:19 | 33.79189 | -118.17505 | 7771 ft | 166 kts | 36° |
| 2026-04-26 04:19 | 33.80075 | -118.16607 | 7645 ft | 173 kts | 36° |
| 2026-04-26 04:19 | 33.81027 | -118.15642 | 7413 ft | 183 kts | 36° |
| 2026-04-26 04:19 | 33.81962 | -118.14689 | 7159 ft | 169 kts | 36° |
| 2026-04-26 04:20 | 33.82836 | -118.13791 | 6901 ft | 162 kts | 36° |
| 2026-04-26 04:20 | 33.83679 | -118.12925 | 6645 ft | 158 kts | 36° |
| 2026-04-26 04:20 | 33.84549 | -118.12040 | 6410 ft | 169 kts | 36° |
| 2026-04-26 04:20 | 33.85469 | -118.11111 | 6168 ft | 175 kts | 36° |
| 2026-04-26 04:21 | 33.86409 | -118.10163 | 5921 ft | 177 kts | 36° |
| 2026-04-26 04:21 | 33.87362 | -118.09207 | 5671 ft | 179 kts | 36° |
| 2026-04-26 04:21 | 33.88314 | -118.08241 | 5417 ft | 179 kts | 36° |
| 2026-04-26 04:21 | 33.89268 | -118.07274 | 5163 ft | 179 kts | 36° |
| 2026-04-26 04:22 | 33.90217 | -118.06324 | 5008 ft | 173 kts | 36° |
| 2026-04-26 04:22 | 33.91123 | -118.05429 | 5003 ft | 164 kts | 36° |
| 2026-04-26 04:22 | 33.91993 | -118.04570 | 4999 ft | 160 kts | 36° |
| 2026-04-26 04:22 | 33.92847 | -118.03724 | 4996 ft | 157 kts | 36° |
| 2026-04-26 04:23 | 33.93690 | -118.02889 | 5000 ft | 156 kts | 36° |
| 2026-04-26 04:23 | 33.94641 | -118.02414 | 4998 ft | 147 kts | 352° |
| 2026-04-26 04:23 | 33.95438 | -118.03020 | 4995 ft | 136 kts | 297° |
| 2026-04-26 04:23 | 33.95860 | -118.04030 | 5007 ft | 135 kts | 294° |
| 2026-04-26 04:24 | 33.96285 | -118.05036 | 5011 ft | 135 kts | 294° |
| 2026-04-26 04:24 | 33.96710 | -118.06048 | 5011 ft | 135 kts | 294° |
| 2026-04-26 04:24 | 33.97133 | -118.07062 | 5005 ft | 136 kts | 294° |
| 2026-04-26 04:24 | 33.97350 | -118.08121 | 5010 ft | 132 kts | 264° |
| 2026-04-26 04:25 | 33.96935 | -118.09091 | 5014 ft | 136 kts | 225° |
| 2026-04-26 04:25 | 33.96038 | -118.09495 | 5012 ft | 145 kts | 186° |
| 2026-04-26 04:25 | 33.95064 | -118.09103 | 5016 ft | 153 kts | 153° |
| 2026-04-26 04:25 | 33.94087 | -118.08864 | 4994 ft | 141 kts | 202° |
| 2026-04-26 04:26 | 33.93414 | -118.09658 | 4769 ft | 143 kts | 254° |
| 2026-04-26 04:26 | 33.93531 | -118.10852 | 4529 ft | 149 kts | 287° |
| 2026-04-26 04:26 | 33.93890 | -118.12029 | 4291 ft | 151 kts | 288° |
| 2026-04-26 04:26 | 33.94249 | -118.13226 | 4042 ft | 153 kts | 288° |
| 2026-04-26 04:27 | 33.94603 | -118.14413 | 3815 ft | 147 kts | 288° |
| 2026-04-26 04:27 | 33.94921 | -118.15449 | 3787 ft | 119 kts | 288° |
| 2026-04-26 04:27 | 33.95188 | -118.16309 | 3788 ft | 102 kts | 288° |
| 2026-04-26 04:27 | 33.95428 | -118.17072 | 3787 ft | 93 kts | 288° |
| 2026-04-26 04:28 | 33.95654 | -118.17778 | 3795 ft | 88 kts | 288° |
| 2026-04-26 04:28 | 33.95843 | -118.18496 | 3597 ft | 101 kts | 275° |
| 2026-04-26 04:28 | 33.95808 | -118.19361 | 3396 ft | 102 kts | 258° |
| 2026-04-26 04:28 | 33.95652 | -118.20188 | 3212 ft | 103 kts | 264° |
| 2026-04-26 04:29 | 33.95570 | -118.21036 | 3049 ft | 102 kts | 264° |
| 2026-04-26 04:29 | 33.95481 | -118.21862 | 2979 ft | 97 kts | 261° |
| 2026-04-26 04:29 | 33.95351 | -118.22668 | 2867 ft | 100 kts | 258° |
| 2026-04-26 04:29 | 33.95155 | -118.23508 | 2707 ft | 107 kts | 252° |
| 2026-04-26 04:30 | 33.94927 | -118.24406 | 2470 ft | 114 kts | 262° |
| 2026-04-26 04:30 | 33.94850 | -118.25357 | 2256 ft | 114 kts | 266° |
| 2026-04-26 04:30 | 33.94880 | -118.26307 | 2095 ft | 112 kts | 274° |
| 2026-04-26 04:30 | 33.94989 | -118.27233 | 1926 ft | 111 kts | 276° |
| 2026-04-26 04:31 | 33.95023 | -118.28105 | 1876 ft | 103 kts | 265° |
| 2026-04-26 04:31 | 33.94899 | -118.28957 | 1859 ft | 105 kts | 258° |
| 2026-04-26 04:31 | 33.94754 | -118.29819 | 1970 ft | 97 kts | 264° |
| 2026-04-26 04:31 | 33.94668 | -118.30673 | 1784 ft | 113 kts | 257° |
| 2026-04-26 04:32 | 33.94479 | -118.31598 | 1707 ft | 115 kts | 257° |
| 2026-04-26 04:32 | 33.94367 | -118.32237 | 1567 ft | 121 kts | 262° |
| 2026-04-26 04:32 | 33.94254 | -118.33255 | 1365 ft | 126 kts | 261° |
| 2026-04-26 04:32 | 33.94145 | -118.34319 | 1178 ft | 126 kts | 263° |
| 2026-04-26 04:33 | 33.94053 | -118.35297 | 950 ft | 113 kts | 263° |
| 2026-04-26 04:33 | 33.93980 | -118.36203 | 694 ft | 105 kts | 259° |
| 2026-04-26 04:33 | 33.93896 | -118.36935 | 639 ft | 78 kts | 257° |
| 2026-04-26 04:33 | 33.93813 | -118.37599 | 381 ft | 77 kts | 267° |
| 2026-04-26 04:34 | 33.93743 | -118.38203 | 163 ft | 68 kts | 264° |
| 2026-04-26 04:34 | 33.93694 | -118.38683 | 122 ft | 41 kts | 266° |
| 2026-04-26 04:34 | 33.93676 | -118.38889 | 124 ft | 17 kts | 262° |
| 2026-04-26 04:34 | 33.93660 | -118.39035 | 124 ft | 19 kts | 256° |
| 2026-04-26 04:35 | 33.93564 | -118.39097 | 122 ft | 16 kts | 173° |
| 2026-04-26 04:35 | 33.93534 | -118.39094 | 122 ft | 0 kts | 176° |
| 2026-04-26 04:37 | 33.93529 | -118.39079 | 123 ft | 7 kts | 79° |
| 2026-04-26 04:37 | 33.93541 | -118.38976 | 124 ft | 17 kts | 85° |
| 2026-04-26 04:37 | 33.93534 | -118.38938 | 122 ft | 18 kts | 125° |